Tropical Cyclones
[Index]
Main Index Home Page Stock Weather Photos Extreme Storms Discussion Storm News and Storm Chasing Reports Tropical Cyclones / Hurricanes / Typhoons Weather Data and Links Wild Fires / Bushfires Weather Observation Techniques Weather Picture Catalogue Tornado Pictures and Reports Stock Video Footage and DVDs for sale
Season 1984-1985 Tropical Cyclone FELISKA Track Map
Season 1984-1985 Summaries: [BoM-AU] [JTWC-AU] [JTWC-SIO] [JTWC-SPAC] [JTWC-SH]
<<- Previous TC | JTWC 1984-1985 Season | Next TC ->>

click for intensity scale information  Lat/long Grid: Show Hide

 Date Labels: Show Hide

Joint Typhoon Warning Centre Cyclone Data

Name: FELISKA

13 Feb 1985 00:00 UTC to 26 Feb 1985 00:00 UTC

    date/time    lat    long     hPa   cat  kts
1985-02-13 00   18.1    60.1                  25          
1985-02-13 06   18.8    59.5                  30          
1985-02-13 12   18.8    59.1                  30          
1985-02-13 18   18.3    58.8                  30          
1985-02-14 00   17.7    58.5                  30          
1985-02-14 06   17.0    58.3                  30          
1985-02-14 12   16.3    58.0                  35          
1985-02-14 18   15.9    57.7                  35          
1985-02-15 00   15.9    57.3                  35          
1985-02-15 06   16.0    57.1                  35          
1985-02-15 12   16.1    56.8            1     40          
1985-02-15 18   16.1    56.5            1     40          
1985-02-16 00   16.2    56.2            1     40          
1985-02-16 06   16.2    55.9            1     45          
1985-02-16 12   16.3    55.7            1     45          
1985-02-16 18   16.3    55.6            1     45          
1985-02-17 00   16.4    55.4            1     45          
1985-02-17 06   16.4    55.1            1     45          
1985-02-17 12   16.5    54.8            1     45          
1985-02-17 18   16.5    54.5            1     45          
1985-02-18 00   16.6    54.2            1     45          
1985-02-18 06   16.6    53.8            1     45          
1985-02-18 12   16.7    53.4            1     40          
1985-02-18 18   16.7    53.1            1     40          
1985-02-19 00   16.8    52.8            1     40          
1985-02-19 06   16.9    52.5            1     40          
1985-02-19 12   17.1    52.2            1     40          
1985-02-19 18   17.3    51.9            1     40          
1985-02-20 00   17.5    51.7            1     45          
1985-02-20 06   17.9    51.2            1     45          
1985-02-20 12   18.4    50.8            1     50          
1985-02-20 18   18.9    50.6            1     50          
1985-02-21 00   19.5    50.4            2     55          
1985-02-21 06   20.0    50.2            2     55          
1985-02-21 12   20.6    50.1            2     60          
1985-02-21 18   21.1    50.0            2     65          
1985-02-22 00   21.6    50.1            2     65          
1985-02-22 06   22.0    50.3            2     65          
1985-02-22 12   22.3    50.5            2     60          
1985-02-22 18   22.6    50.7            2     60          
1985-02-23 00   22.8    50.9            2     55          
1985-02-23 06   23.0    51.2            2     55          
1985-02-23 12   23.2    51.5            1     50          
1985-02-23 18   23.5    52.0            1     50          
1985-02-24 00   23.8    52.5            1     45          
1985-02-24 06   24.0    52.8            1     45          
1985-02-24 12   24.3    52.9            1     40          
1985-02-24 18   24.7    52.9            1     40          
1985-02-25 00   25.1    52.8                  35          
1985-02-25 06   25.6    52.9                  35          
1985-02-25 12   26.2    53.0                  30          
1985-02-25 18   26.6    53.3                  30          
1985-02-26 00   26.9    53.8                  30          
Winds are 1-min average.

Tropical cyclone tracks developed by Michael Bath using data from the Joint Typhoon Warning Centre Best Tracks and Google Maps.


[Australian Severe Weather index] [Copyright Notice] [Email Contacts] [Search This Site] [Privacy Policy]
Document: tropical_cyclone_feliska.htm Updated: 18 September 2016